Time;durP1;ratioP1;P1;durP2;ratioP2;P2;SDS_P1;SDS_P2;PMS_P1;PMS_P2;Temp;Humidity;BMP_temperature;BMP_pressure;BME280_temperature;BME280_humidity;BME280_pressure;Samples;Min_cycle;Max_cycle;Signal;HPM_P1;HPM_P2
2023/01/24 00:00:11;;;;;;;;;;;5.30;93.30;;;5.84;60.63;100119.06;5066607;27;110897;-74
2023/01/24 00:02:38;;;;;;;;;;;5.30;93.30;;;5.84;60.51;100117.16;5040940;27;108595;-74
2023/01/24 00:05:05;;;;;;;;;;;5.30;93.30;;;5.82;60.27;100105.59;5028386;27;123481;-74
2023/01/24 00:10:10;;;;;;;;;;;5.20;93.20;;;5.79;60.07;100105.25;5029136;22;96743;-70
2023/01/24 00:12:37;;;;;;;;;;;5.20;93.20;;;5.76;60.91;100110.16;5011569;28;107757;-73
2023/01/24 00:15:05;;;;;;;;;;;5.20;93.30;;;5.76;61.03;100101.94;4989339;28;123548;-72
2023/01/24 00:17:31;;;;;;;;;;;5.20;93.30;;;5.80;60.87;100087.72;5011181;28;124079;-73
2023/01/24 00:19:57;;;;;;;;;;;5.20;93.30;;;5.80;60.39;100094.03;5024934;28;109174;-73
2023/01/24 00:22:24;;;;;;;;;;;5.30;93.30;;;5.80;60.80;100087.72;5012112;28;107733;-74
2023/01/24 00:24:50;;;;;;;;;;;5.20;93.30;;;5.82;60.21;100091.06;5006329;28;124528;-79
2023/01/24 00:27:17;;;;;;;;;;;5.30;93.30;;;5.84;60.22;100103.44;5025969;28;124880;-73
2023/01/24 00:29:43;;;;;;;;;;;5.30;93.30;;;5.89;60.24;100110.94;5025100;28;109518;-73
2023/01/24 00:32:10;;;;;;;;;;;5.30;93.20;;;5.89;60.52;100105.44;5028941;28;108960;-73
2023/01/24 00:34:36;;;;;;;;;;;5.30;93.20;;;5.90;60.22;100109.84;5025220;28;124094;-73
2023/01/24 00:37:02;;;;;;;;;;;5.30;93.20;;;5.87;60.68;100118.56;5026103;28;124278;-73
2023/01/24 00:39:28;;;;;;;;;;;5.30;93.20;;;5.84;60.66;100124.56;5013881;28;108373;-72
2023/01/24 00:41:55;;;;;;;;;;;5.20;93.20;;;5.78;60.51;100122.78;5029311;28;108664;-74
2023/01/24 00:44:21;;;;;;;;;;;5.20;93.20;;;5.74;60.42;100115.06;5027735;28;124346;-73
2023/01/24 00:46:51;;;;;;;;;;;5.10;93.20;;;5.74;61.16;100117.78;5029032;28;123791;-73
2023/01/24 00:49:17;;;;;;;;;;;5.20;93.30;;;5.72;60.81;100117.25;5028956;28;110116;-73
2023/01/24 00:51:43;;;;;;;;;;;5.20;93.30;;;5.71;60.44;100118.28;5027539;28;109337;-74
2023/01/24 00:54:10;;;;;;;;;;;5.20;93.30;;;5.71;60.51;100112.81;5012852;28;123154;-73
2023/01/24 00:56:36;;;;;;;;;;;5.20;93.30;;;5.75;60.15;100119.47;5030900;28;123324;-74
2023/01/24 00:59:02;;;;;;;;;;;5.20;93.30;;;5.80;60.78;100115.16;5026865;28;108728;-74
2023/01/24 01:01:28;;;;;;;;;;;5.30;93.30;;;5.79;60.46;100108.84;5029244;28;109267;-73
2023/01/24 01:03:56;;;;;;;;;;;5.20;93.20;;;5.78;60.49;100111.81;5014731;28;123057;-73
2023/01/24 01:06:23;;;;;;;;;;;5.20;93.20;;;5.80;59.98;100115.16;5027332;28;123364;-74
2023/01/24 01:08:50;;;;;;;;;;;5.30;93.20;;;5.82;60.38;100118.47;5029013;28;109350;-74
2023/01/24 01:11:17;;;;;;;;;;;5.30;93.20;;;5.86;60.00;100125.16;4996332;28;108427;-74
2023/01/24 01:13:47;;;;;;;;;;;5.30;93.10;;;5.88;60.60;100128.44;5011806;28;123732;-73
2023/01/24 01:16:17;;;;;;;;;;;5.30;93.10;;;5.89;59.98;100130.13;5026941;28;124037;-73
2023/01/24 01:18:43;;;;;;;;;;;5.30;93.10;;;5.89;60.15;100136.44;5028895;28;109577;-73
2023/01/24 01:21:13;;;;;;;;;;;5.40;93.10;;;5.89;60.44;100130.13;5014695;28;108825;-73
2023/01/24 01:23:40;;;;;;;;;;;5.30;93.10;;;5.88;60.04;100122.97;5013869;28;123539;-73
2023/01/24 01:26:08;;;;;;;;;;;5.30;93.10;;;5.89;60.48;100127.38;5006003;28;123831;-73
2023/01/24 01:28:35;;;;;;;;;;;5.30;93.10;;;5.89;59.79;100130.13;5013111;28;109178;-73
2023/01/24 01:31:02;;;;;;;;;;;5.30;93.10;;;5.87;60.76;100129.53;5011952;28;108779;-74
2023/01/24 01:33:28;;;;;;;;;;;5.40;93.10;;;5.90;60.24;100131.78;5027217;27;124069;-73
2023/01/24 01:35:54;;;;;;;;;;;5.30;93.00;;;5.89;60.21;100135.63;5029535;28;123804;-73
2023/01/24 01:38:24;;;;;;;;;;;5.30;93.00;;;5.89;60.38;100130.13;5013286;28;109291;-74
2023/01/24 01:40:51;;;;;;;;;;;5.30;93.00;;;5.92;59.75;100135.13;5015299;28;109877;-73
2023/01/24 01:43:20;;;;;;;;;;;5.40;93.00;;;5.92;60.11;100135.94;5021481;28;123626;-73
2023/01/24 01:45:51;;;;;;;;;;;5.40;93.00;;;5.96;59.94;100130.81;4997680;28;123126;-74
2023/01/24 01:48:29;;;;;;;;;;;5.40;93.00;;;5.95;59.63;100129.97;5016008;28;109325;-73
2023/01/24 01:51:04;;;;;;;;;;;5.40;93.00;;;5.92;60.20;100141.41;5031625;28;108525;-74
2023/01/24 01:53:37;;;;;;;;;;;5.40;93.00;;;5.87;59.81;100146.00;5033260;28;124157;-74
2023/01/24 01:56:12;;;;;;;;;;;5.30;93.00;;;5.84;59.83;100149.22;5014964;28;123810;-74
2023/01/24 01:58:40;;;;;;;;;;;5.30;93.10;;;5.84;60.14;100150.06;5015120;28;109570;-74
2023/01/24 02:01:06;;;;;;;;;;;5.30;93.10;;;5.88;60.56;100144.91;5015462;28;108753;-74
2023/01/24 02:03:48;;;;;;;;;;;5.30;93.10;;;5.91;60.19;100134.28;5014377;28;123954;-74
2023/01/24 02:06:30;;;;;;;;;;;5.40;93.00;;;5.96;60.01;100147.25;5003558;28;123303;-78
2023/01/24 02:08:56;;;;;;;;;;;5.40;93.00;;;5.93;59.72;100143.09;5023438;28;109572;-74
2023/01/24 02:11:38;;;;;;;;;;;5.40;93.00;;;5.95;59.86;100146.44;5021586;28;108396;-74
2023/01/24 02:16:56;;;;;;;;;;;5.40;93.00;;;5.93;59.83;100145.00;5021052;28;124645;-73
2023/01/24 02:19:31;;;;;;;;;;;5.40;93.00;;;5.95;60.53;100151.94;5026881;28;109468;-74
2023/01/24 02:22:03;;;;;;;;;;;5.40;93.00;;;5.93;60.12;100147.72;5015762;28;107710;-73
2023/01/24 02:24:34;;;;;;;;;;;5.40;93.00;;;5.94;60.30;100141.22;5009656;28;124034;-73
2023/01/24 02:27:01;;;;;;;;;;;5.40;93.00;;;5.94;59.58;100141.22;5007523;28;123694;-73
2023/01/24 02:29:28;;;;;;;;;;;5.40;93.00;;;5.96;59.57;100144.53;5002338;28;109437;-73
2023/01/24 02:31:59;;;;;;;;;;;5.40;92.90;;;5.95;60.30;100156.59;5033630;28;109570;-73
2023/01/24 02:34:26;;;;;;;;;;;5.40;93.00;;;5.90;60.21;100165.53;5033190;28;124957;-73
2023/01/24 02:37:13;;;;;;;;;;;5.30;93.00;;;5.90;60.17;100171.00;4994139;28;123178;-74
2023/01/24 02:39:51;;;;;;;;;;;5.40;93.00;;;5.94;59.98;100160.41;5021265;28;109369;-73
2023/01/24 02:42:22;;;;;;;;;;;5.40;93.10;;;5.93;60.11;100162.31;5016620;28;109261;-74
2023/01/24 02:44:59;;;;;;;;;;;5.40;93.00;;;5.94;59.91;100166.72;5006228;28;124236;-73
2023/01/24 02:47:32;;;;;;;;;;;5.40;93.00;;;5.97;59.97;100176.38;5030309;28;124131;-74
2023/01/24 02:49:59;;;;;;;;;;;5.40;93.00;;;5.99;60.03;100174.19;5011321;28;109131;-73
2023/01/24 02:55:11;;;;;;;;;;;5.50;93.00;;;6.01;59.90;100172.03;5017685;28;124616;-74
2023/01/24 03:00:22;;;;;;;;;;;5.80;93.10;;;5.91;60.16;100171.81;5036677;28;110543;-74
2023/01/24 03:02:49;;;;;;;;;;;5.40;92.90;;;5.93;60.30;100169.69;5035286;28;108781;-74
2023/01/24 03:05:15;;;;;;;;;;;5.40;93.00;;;5.94;59.48;100174.97;5022356;28;124231;-73
2023/01/24 03:07:44;;;;;;;;;;;5.40;93.00;;;5.91;60.17;100172.69;5032499;28;123863;-74
2023/01/24 03:10:12;;;;;;;;;;;5.30;93.00;;;5.92;59.99;100168.03;5032756;28;109421;-74
2023/01/24 03:34:51;;;;;;;;;;;5.30;93.10;;;5.76;60.22;100162.25;5034237;28;109452;-74
2023/01/24 03:39:53;;;;;;;;;;;5.20;93.10;;;5.75;60.85;100178.97;5032595;28;124124;-73
2023/01/24 03:40:11;;;;;;;;;;;5.20;93.10;;;5.74;60.31;100167.16;5026025;28;125450;-74
2023/01/24 03:42:46;;;;;;;;;;;6.60;93.70;;;5.70;60.59;100168.75;5030092;28;109320;-75
2023/01/24 03:45:18;;;;;;;;;;;5.10;93.20;;;5.69;60.18;100178.03;5022014;28;108827;-74
2023/01/24 03:47:54;;;;;;;;;;;5.10;93.20;;;5.65;61.05;100179.63;5012856;27;124762;-74
2023/01/24 03:53:07;;;;;;;;;;;5.10;93.40;;;5.65;60.69;100179.63;5030366;28;110383;-74
2023/01/24 03:55:34;;;;;;;;;;;5.10;93.40;;;5.65;60.84;100174.13;5026301;28;108747;-74
2023/01/24 03:58:01;;;;;;;;;;;4.60;93.10;;;5.66;60.68;100186.75;5027782;28;124131;-74
2023/01/24 04:00:28;;;;;;;;;;;5.10;93.30;;;5.67;60.66;100180.22;5031135;28;124185;-73
2023/01/24 04:02:54;;;;;;;;;;;5.20;93.40;;;5.67;60.62;100185.69;5016643;28;108893;-74
2023/01/24 04:05:21;;;;;;;;;;;5.10;93.40;;;5.67;60.77;100182.94;5006262;28;107056;-74
2023/01/24 04:07:47;;;;;;;;;;;5.10;93.40;;;5.67;61.07;100177.47;5028533;28;124280;-74
2023/01/24 04:10:15;;;;;;;;;;;5.10;93.40;;;5.68;61.23;100190.09;5028366;28;123751;-74
2023/01/24 04:12:42;;;;;;;;;;;5.10;93.40;;;5.70;61.41;100181.63;4981923;28;109432;-74
2023/01/24 04:15:20;;;;;;;;;;;5.20;93.40;;;5.74;60.68;100178.13;5016537;28;109625;-74
2023/01/24 04:17:47;;;;;;;;;;;5.20;93.40;;;5.72;61.02;100180.31;5032085;28;124186;-74
2023/01/24 04:20:14;;;;;;;;;;;5.20;93.40;;;5.72;61.06;100177.56;5030760;28;123774;-74
2023/01/24 04:22:40;;;;;;;;;;;5.20;93.40;;;5.73;61.35;100176.47;5032081;28;109495;-74
2023/01/24 04:25:07;;;;;;;;;;;5.20;93.40;;;5.75;61.27;100178.97;5027713;28;108842;-74
2023/01/24 04:27:36;;;;;;;;;;;5.20;93.40;;;5.74;60.75;100172.63;5014005;28;124384;-77
2023/01/24 04:30:04;;;;;;;;;;;5.20;93.40;;;5.75;61.37;100179.81;5006356;28;123921;-74
2023/01/24 04:32:30;;;;;;;;;;;5.20;93.40;;;5.73;61.22;100171.00;5021658;28;109148;-74
2023/01/24 04:34:57;;;;;;;;;;;5.20;93.40;;;5.75;60.73;100179.81;5012460;28;107343;-74
2023/01/24 04:37:23;;;;;;;;;;;5.20;93.40;;;5.74;60.62;100172.63;5025118;28;124088;-74
2023/01/24 04:39:49;;;;;;;;;;;5.20;93.40;;;5.74;61.13;100167.16;5022473;28;123046;-74
2023/01/24 04:42:16;;;;;;;;;;;5.20;93.40;;;5.76;60.34;100175.16;5029337;28;109167;-73
2023/01/24 04:44:42;;;;;;;;;;;5.20;93.40;;;5.78;60.75;100177.63;5022894;28;108488;-74
2023/01/24 04:47:08;;;;;;;;;;;5.20;93.40;;;5.81;61.19;100182.66;4992618;28;123922;-73
2023/01/24 04:49:34;;;;;;;;;;;5.20;93.40;;;5.82;60.71;100184.28;5028445;28;124000;-74
2023/01/24 04:52:01;;;;;;;;;;;5.30;93.40;;;5.79;60.80;100191.09;5031528;28;109778;-73
2023/01/24 04:54:27;;;;;;;;;;;5.20;93.40;;;5.77;60.99;100187.78;5029045;28;108665;-74
2023/01/24 04:56:53;;;;;;;;;;;5.20;93.40;;;5.78;60.77;100181.22;5027273;28;123883;-74
2023/01/24 04:59:20;;;;;;;;;;;5.20;93.40;;;5.74;60.42;100189.09;5027836;28;124311;-73
2023/01/24 05:01:46;;;;;;;;;;;5.20;93.40;;;5.73;60.58;100192.94;5023015;28;110374;-74
2023/01/24 05:04:13;;;;;;;;;;;5.20;93.40;;;5.74;60.90;100191.84;5028074;28;109634;-73
2023/01/24 05:06:39;;;;;;;;;;;5.20;93.40;;;5.74;61.34;100193.75;5029665;28;124500;-73
2023/01/24 05:09:05;;;;;;;;;;;5.20;93.40;;;5.74;60.66;100197.31;5010137;28;123787;-73
2023/01/24 05:11:33;;;;;;;;;;;5.20;93.40;;;5.76;61.13;100188.88;5029753;28;110099;-73
2023/01/24 05:13:59;;;;;;;;;;;5.20;93.50;;;5.79;60.98;100204.00;5010785;28;108711;-74
2023/01/24 05:16:25;;;;;;;;;;;5.30;93.50;;;5.76;60.38;100206.13;5027891;28;124123;-74
2023/01/24 05:18:52;;;;;;;;;;;5.20;93.40;;;5.72;61.20;100198.66;5011862;28;124480;-73
2023/01/24 05:21:18;;;;;;;;;;;5.20;93.50;;;5.73;60.81;100203.91;5027529;28;109672;-73
2023/01/24 05:23:52;;;;;;;;;;;5.20;93.50;;;5.73;61.22;100209.38;5027839;28;109048;-74
2023/01/24 05:26:21;;;;;;;;;;;5.20;93.50;;;5.67;61.23;100210.38;5027819;28;124257;-74
2023/01/24 05:28:48;;;;;;;;;;;5.10;93.50;;;5.67;61.25;100204.88;4981892;28;121924;-73
2023/01/24 05:31:15;;;;;;;;;;;5.10;93.60;;;5.69;61.56;100207.38;5010084;28;109668;-73
2023/01/24 05:33:41;;;;;;;;;;;5.20;93.60;;;5.71;60.99;100217.00;5021449;28;107839;-74
2023/01/24 05:36:11;;;;;;;;;;;5.10;93.60;;;5.72;61.46;100220.59;5025670;28;124847;-73
2023/01/24 05:38:37;;;;;;;;;;;5.20;93.60;;;5.73;61.55;100217.59;5026394;28;124550;-72
2023/01/24 05:41:09;;;;;;;;;;;5.20;93.60;;;5.73;60.52;100220.34;5028277;28;109215;-72
2023/01/24 05:43:35;;;;;;;;;;;5.20;93.60;;;5.71;61.45;100225.25;5009415;28;107641;-72
2023/01/24 05:46:08;;;;;;;;;;;5.20;93.60;;;5.71;61.63;100229.91;5011389;28;123315;-72
2023/01/24 05:48:35;;;;;;;;;;;5.20;93.60;;;5.72;61.42;100237.91;5006503;28;123667;-72
2023/01/24 05:51:07;;;;;;;;;;;5.20;93.60;;;5.76;61.24;100230.81;5021562;28;110276;-72
2023/01/24 05:53:35;;;;;;;;;;;5.20;93.60;;;5.74;60.96;100234.88;5010127;28;109866;-73
2023/01/24 05:56:09;;;;;;;;;;;5.20;93.60;;;5.72;61.17;100235.16;5026358;28;124228;-73
2023/01/24 05:58:40;;;;;;;;;;;5.20;93.60;;;5.74;60.98;100235.72;5001958;28;124564;-73
2023/01/24 06:01:08;;;;;;;;;;;5.20;93.60;;;5.71;61.67;100233.47;5010599;28;109397;-73
2023/01/24 06:03:36;;;;;;;;;;;5.20;93.60;;;5.69;62.01;100232.88;5026626;28;108980;-74
2023/01/24 06:06:03;;;;;;;;;;;5.20;93.70;;;5.74;61.65;100227.50;4997479;28;123942;-74
2023/01/24 06:08:29;;;;;;;;;;;5.20;93.70;;;5.77;61.87;100231.66;4970980;28;123986;-76
2023/01/24 06:11:05;;;;;;;;;;;5.20;93.80;;;5.82;61.18;100225.44;4980376;28;108811;-76
2023/01/24 06:13:32;;;;;;;;;;;5.30;93.80;;;5.83;61.13;100230.69;4985672;28;108680;-75
2023/01/24 06:16:07;;;;;;;;;;;5.30;93.80;;;5.87;61.93;100236.50;4973745;28;123526;-76
2023/01/24 06:18:33;;;;;;;;;;;5.30;93.70;;;5.89;61.48;100231.63;4988940;28;123833;-74
2023/01/24 06:21:26;;;;;;;;;;;5.40;93.70;;;5.93;61.56;100235.50;4991329;28;109684;-77
2023/01/24 06:23:53;;;;;;;;;;;5.40;93.70;;;5.93;61.15;100241.00;4991762;28;108857;-73
2023/01/24 06:26:20;;;;;;;;;;;5.40;93.70;;;5.97;61.52;100237.56;4995829;28;123143;-74
2023/01/24 06:28:46;;;;;;;;;;;5.50;93.90;;;6.03;62.31;100238.47;4994960;28;123904;-73
2023/01/24 06:31:21;;;;;;;;;;;5.50;94.10;;;6.09;62.01;100242.97;4990914;28;111383;-74
2023/01/24 06:34:05;;;;;;;;;;;5.50;94.20;;;6.14;62.27;100243.06;4994431;28;108725;-76
2023/01/24 06:36:47;;;;;;;;;;;5.60;94.20;;;6.18;62.06;100248.91;4994660;28;124140;-72
2023/01/24 06:39:15;;;;;;;;;;;5.60;94.20;;;6.16;61.43;100251.06;5013069;28;123794;-73
2023/01/24 06:41:44;;;;;;;;;;;5.60;94.00;;;6.14;61.63;100250.47;4995134;28;110110;-74
2023/01/24 06:44:11;;;;;;;;;;;5.60;93.90;;;6.10;61.43;100258.38;4992953;28;109635;-73
2023/01/24 06:46:37;;;;;;;;;;;5.60;93.90;;;6.06;61.08;100259.94;4986585;28;124284;-73
2023/01/24 06:49:04;;;;;;;;;;;5.50;93.70;;;6.00;60.58;100255.44;5010547;28;123186;-73
2023/01/24 06:51:30;;;;;;;;;;;5.40;93.70;;;5.97;61.05;100264.16;4990618;28;109331;-73
2023/01/24 06:53:56;;;;;;;;;;;5.40;93.70;;;5.95;61.61;100258.09;4991051;28;108637;-73
2023/01/24 06:56:22;;;;;;;;;;;5.40;93.80;;;5.94;61.21;100259.16;4995589;28;124604;-73
2023/01/24 06:58:49;;;;;;;;;;;5.30;93.70;;;5.88;61.59;100271.06;4992243;28;124534;-74
2023/01/24 07:01:15;;;;;;;;;;;5.30;93.70;;;5.84;60.98;100273.47;4990476;28;109485;-73
2023/01/24 07:03:42;;;;;;;;;;;5.30;93.80;;;5.84;61.22;100276.22;4989274;28;108920;-79
2023/01/24 07:06:08;;;;;;;;;;;5.30;93.80;;;5.83;61.34;100273.72;5004979;28;123173;-72
2023/01/24 07:08:34;;;;;;;;;;;5.20;93.70;;;5.82;61.38;100272.06;4989301;28;123667;-72
2023/01/24 07:11:01;;;;;;;;;;;5.30;93.80;;;5.82;61.33;100277.53;4992977;28;109518;-73
2023/01/24 07:13:27;;;;;;;;;;;5.30;93.80;;;5.81;60.99;100273.16;4992297;28;110652;-73
2023/01/24 07:15:54;;;;;;;;;;;5.30;93.80;;;5.83;61.22;100279.19;4993499;28;123202;-73
2023/01/24 07:18:20;;;;;;;;;;;5.30;93.80;;;5.83;61.22;100279.19;4991294;28;124140;-73
2023/01/24 07:20:47;;;;;;;;;;;5.30;93.80;;;5.84;61.61;100283.63;4993894;28;108537;-73
2023/01/24 07:23:19;;;;;;;;;;;5.30;93.80;;;5.87;60.81;100283.13;4990909;28;108739;-73
2023/01/24 07:25:47;;;;;;;;;;;5.30;93.70;;;5.86;61.17;100290.53;4990081;28;124360;-73
2023/01/24 07:28:14;;;;;;;;;;;5.30;93.70;;;5.86;61.30;100295.19;4992712;28;122631;-73
2023/01/24 07:30:40;;;;;;;;;;;5.30;93.70;;;5.86;61.48;100293.28;4995714;28;109033;-73
2023/01/24 07:33:06;;;;;;;;;;;5.30;93.70;;;5.86;61.63;100295.19;4980740;28;108185;-73
2023/01/24 07:35:33;;;;;;;;;;;5.30;93.70;;;5.83;61.26;100295.66;4991864;28;123787;-75
2023/01/24 07:38:01;;;;;;;;;;;5.30;93.70;;;5.79;61.02;100289.00;4991900;28;123743;-73
2023/01/24 07:40:27;;;;;;;;;;;5.30;93.70;;;5.78;61.04;100287.31;4990978;28;109322;-73
2023/01/24 07:42:53;;;;;;;;;;;6.90;94.40;;;5.79;61.19;100294.50;4988898;28;108535;-72
2023/01/24 07:45:20;;;;;;;;;;;5.30;93.70;;;5.78;61.01;100299.16;4989473;28;124163;-73
2023/01/24 07:47:46;;;;;;;;;;;5.20;93.70;;;5.80;61.80;100305.19;4992329;28;123184;-73
2023/01/24 07:50:15;;;;;;;;;;;5.30;93.70;;;5.81;60.72;100306.88;4989729;28;109264;-72
2023/01/24 07:52:41;;;;;;;;;;;5.30;93.70;;;5.83;61.58;100312.09;4989559;28;109247;-80
2023/01/24 07:55:10;;;;;;;;;;;5.30;93.70;;;5.83;61.31;100318.47;4986672;28;124064;-72
2023/01/24 07:57:37;;;;;;;;;;;5.30;93.70;;;5.83;61.07;100321.19;4988648;28;124417;-74
2023/01/24 08:00:04;;;;;;;;;;;5.30;93.70;;;5.85;61.58;100326.41;4990722;28;109553;-73
2023/01/24 08:02:30;;;;;;;;;;;5.30;93.60;;;5.84;61.42;100330.25;4990266;28;107165;-73
2023/01/24 08:04:57;;;;;;;;;;;5.30;93.70;;;5.81;60.89;100328.81;4985909;28;124336;-72
2023/01/24 08:07:23;;;;;;;;;;;5.20;93.60;;;5.81;61.52;100330.75;4989615;28;124363;-73
2023/01/24 08:09:49;;;;;;;;;;;5.20;93.70;;;5.81;61.56;100334.31;4990925;28;109719;-73
2023/01/24 08:12:16;;;;;;;;;;;5.30;93.70;;;5.81;61.00;100328.00;4984737;28;108191;-73
2023/01/24 08:14:42;;;;;;;;;;;5.30;93.70;;;5.82;61.47;100326.91;4989703;28;124794;-73
2023/01/24 08:17:09;;;;;;;;;;;5.30;93.70;;;5.81;61.14;100331.56;4986300;28;123911;-74
2023/01/24 08:19:35;;;;;;;;;;;5.30;93.80;;;5.81;61.56;100326.09;4985546;28;110098;-72
2023/01/24 08:22:02;;;;;;;;;;;5.30;94.00;;;5.85;62.15;100337.38;4981836;28;109711;-73
2023/01/24 08:24:28;;;;;;;;;;;5.30;94.40;;;5.88;62.73;100336.91;4980399;28;125466;-72
2023/01/24 08:26:55;;;;;;;;;;;5.30;94.60;;;5.92;62.83;100351.81;4982926;28;123849;-72
2023/01/24 08:29:21;;;;;;;;;;;5.30;94.40;;;5.96;62.52;100350.25;4988150;28;109498;-73
2023/01/24 08:31:48;;;;;;;;;;;5.50;94.40;;;5.97;61.62;100352.78;4980532;28;108668;-73
2023/01/24 08:34:14;;;;;;;;;;;5.40;94.10;;;5.97;61.34;100349.19;4980568;28;124412;-73
2023/01/24 08:36:40;;;;;;;;;;;5.40;94.00;;;5.96;61.32;100347.53;4988227;28;123853;-73
2023/01/24 08:39:07;;;;;;;;;;;5.40;94.00;;;5.95;61.45;100348.59;4978453;28;109248;-72
2023/01/24 08:41:33;;;;;;;;;;;5.40;93.90;;;5.97;61.96;100349.19;4984645;28;108461;-73
2023/01/24 08:44:00;;;;;;;;;;;5.40;93.90;;;6.01;61.67;100357.78;4984020;28;124420;-72
2023/01/24 08:46:26;;;;;;;;;;;5.50;93.90;;;6.02;60.96;100354.78;4988685;28;123992;-72
2023/01/24 08:48:53;;;;;;;;;;;5.50;94.10;;;6.03;61.33;100358.38;4990179;28;109350;-73
2023/01/24 08:51:19;;;;;;;;;;;5.50;93.80;;;6.05;61.29;100359.78;4979091;28;109290;-73
2023/01/24 08:53:45;;;;;;;;;;;5.50;93.80;;;6.06;61.41;100363.34;4988676;28;123846;-72
2023/01/24 08:56:12;;;;;;;;;;;5.50;93.70;;;6.01;61.32;100360.50;4985825;28;123973;-73
2023/01/24 08:58:39;;;;;;;;;;;5.40;93.60;;;5.98;61.50;100370.06;4987885;28;109654;-74
2023/01/24 09:01:06;;;;;;;;;;;5.50;93.70;;;5.96;61.24;100372.22;4971714;28;108828;-73
2023/01/24 09:03:33;;;;;;;;;;;5.40;93.70;;;5.97;60.95;100376.63;4990457;28;124265;-72
2023/01/24 09:05:59;;;;;;;;;;;5.40;93.70;;;5.97;61.09;100369.22;4981395;28;123069;-73
2023/01/24 09:08:25;;;;;;;;;;;5.40;93.70;;;6.00;61.01;100372.56;4979789;28;110376;-73
2023/01/24 09:10:52;;;;;;;;;;;5.60;93.80;;;6.03;61.27;100370.16;4983193;28;109529;-73
2023/01/24 09:13:18;;;;;;;;;;;5.50;93.70;;;6.06;61.22;100364.19;4987033;28;124299;-73
2023/01/24 09:15:45;;;;;;;;;;;5.50;93.70;;;6.10;61.23;100367.25;4969908;28;122774;-73
2023/01/24 09:18:11;;;;;;;;;;;5.50;93.70;;;6.08;60.92;100369.44;4990741;28;108869;-72
2023/01/24 09:20:37;;;;;;;;;;;5.50;93.60;;;6.05;60.64;100370.75;4975060;28;107605;-73
2023/01/24 09:23:12;;;;;;;;;;;5.50;93.60;;;6.06;61.31;100377.91;4989556;28;124142;-72
2023/01/24 09:25:39;;;;;;;;;;;5.50;93.60;;;6.03;60.68;100375.66;4987847;28;124561;-73
2023/01/24 09:28:05;;;;;;;;;;;5.50;93.60;;;6.03;60.67;100377.56;4990267;28;109465;-72
2023/01/24 09:30:31;;;;;;;;;;;5.50;93.60;;;6.04;60.89;100380.06;4987358;28;109327;-73
2023/01/24 09:32:58;;;;;;;;;;;5.50;93.60;;;6.07;61.14;100379.59;4989632;28;124096;-73
2023/01/24 09:35:24;;;;;;;;;;;5.50;93.60;;;6.08;60.83;100375.75;4988638;28;123803;-73
2023/01/24 09:37:53;;;;;;;;;;;5.50;93.60;;;6.08;60.73;100381.25;4988731;28;109010;-73
2023/01/24 09:40:21;;;;;;;;;;;5.50;93.60;;;6.06;61.12;100383.41;4988588;28;108828;-73
2023/01/24 09:43:01;;;;;;;;;;;5.50;93.60;;;6.11;60.77;100388.16;4983540;28;124204;-73
2023/01/24 09:45:36;;;;;;;;;;;5.50;93.60;;;6.10;60.86;100392.81;4973028;28;122994;-73
2023/01/24 09:48:10;;;;;;;;;;;5.50;93.50;;;6.06;61.24;100382.56;4985683;28;108575;-74
2023/01/24 09:50:46;;;;;;;;;;;5.50;93.60;;;6.06;60.91;100382.56;4987817;28;109070;-73
2023/01/24 09:53:24;;;;;;;;;;;5.80;93.70;;;6.08;60.70;100391.41;4987682;28;125224;-73
2023/01/24 09:55:52;;;;;;;;;;;5.50;93.60;;;6.06;60.73;100382.56;4979714;28;123983;-72
2023/01/24 09:58:30;;;;;;;;;;;5.50;93.60;;;6.07;61.26;100392.44;4988543;28;110248;-72
2023/01/24 10:01:01;;;;;;;;;;;5.50;93.60;;;6.08;60.70;100384.00;4977919;28;108693;-73
2023/01/24 10:03:27;;;;;;;;;;;5.50;93.60;;;6.09;61.28;100387.56;4984114;28;124206;-73
2023/01/24 10:05:56;;;;;;;;;;;5.50;93.60;;;6.12;61.39;100393.38;4993862;28;124193;-74
2023/01/24 10:08:37;;;;;;;;;;;5.60;93.60;;;6.14;60.47;100388.50;4994748;28;109187;-73
2023/01/24 10:11:15;;;;;;;;;;;5.50;93.60;;;6.13;60.56;100403.31;4986875;28;108342;-73
2023/01/24 10:13:59;;;;;;;;;;;5.50;93.50;;;6.10;60.70;100400.19;4984084;28;124851;-74
2023/01/24 10:16:44;;;;;;;;;;;5.50;93.50;;;6.09;60.90;100396.63;4984042;28;123759;-73
2023/01/24 10:19:26;;;;;;;;;;;5.50;93.50;;;6.06;60.18;100393.53;4990593;28;109214;-72
2023/01/24 10:22:27;;;;;;;;;;;5.40;93.50;;;6.02;60.71;100387.72;4991204;28;108942;-73
2023/01/24 10:25:14;;;;;;;;;;;5.40;93.50;;;6.02;60.88;100384.13;4978344;28;124132;-73
2023/01/24 10:27:43;;;;;;;;;;;5.40;93.60;;;6.00;60.94;100384.38;4998548;28;125877;-74
2023/01/24 10:30:23;;;;;;;;;;;5.40;93.60;;;6.00;60.90;100387.13;5009561;28;109263;-74
2023/01/24 10:32:52;;;;;;;;;;;5.40;93.60;;;6.01;61.28;100385.22;4989066;28;107771;-74
2023/01/24 10:35:26;;;;;;;;;;;5.50;93.60;;;6.04;60.54;100379.22;4982680;28;124107;-74
2023/01/24 10:37:55;;;;;;;;;;;5.50;93.60;;;6.04;60.86;100380.06;4989822;28;124128;-73
2023/01/24 10:40:25;;;;;;;;;;;5.50;93.60;;;6.07;60.86;100378.72;4995090;28;109410;-83
2023/01/24 10:42:53;;;;;;;;;;;5.40;93.50;;;6.09;60.36;100382.91;4972200;28;109129;-85
2023/01/24 10:45:22;;;;;;;;;;;5.60;93.50;;;6.11;60.32;100382.66;4987781;28;125505;-73
2023/01/24 10:47:59;;;;;;;;;;;5.50;93.50;;;6.16;60.57;100378.13;4986246;28;124605;-73
2023/01/24 10:50:41;;;;;;;;;;;5.60;93.50;;;6.19;60.39;100377.63;4991519;28;110384;-73
2023/01/24 10:53:20;;;;;;;;;;;5.60;93.40;;;6.20;60.14;100378.44;4984360;28;109520;-74
2023/01/24 10:55:47;;;;;;;;;;;5.60;93.40;;;6.22;60.09;100365.31;4979238;28;124036;-74
2023/01/24 10:58:23;;;;;;;;;;;5.60;93.30;;;6.22;60.10;100359.00;4974623;28;124250;-73
2023/01/24 11:00:58;;;;;;;;;;;5.70;93.40;;;6.24;60.36;100367.84;4990674;28;108563;-74
2023/01/24 11:03:29;;;;;;;;;;;5.60;93.30;;;6.21;60.52;100369.16;4978194;28;108495;-73
2023/01/24 11:05:57;;;;;;;;;;;5.60;93.30;;;6.20;60.68;100367.47;4976603;28;124605;-73
2023/01/24 11:08:26;;;;;;;;;;;5.60;93.30;;;6.22;59.95;100361.75;4986015;28;124090;-73
2023/01/24 11:10:54;;;;;;;;;;;5.60;93.20;;;6.19;59.83;100366.66;4993972;28;109530;-73
2023/01/24 11:13:33;;;;;;;;;;;5.60;93.30;;;6.22;60.14;100359.00;4978866;28;109504;-73
2023/01/24 11:16:16;;;;;;;;;;;5.70;93.30;;;6.25;60.40;100353.03;4992182;28;124265;-77
2023/01/24 11:19:00;;;;;;;;;;;5.60;93.30;;;6.29;60.15;100355.03;4993858;28;123375;-77
2023/01/24 11:21:28;;;;;;;;;;;5.70;93.30;;;6.30;60.81;100355.88;5007601;28;109272;-73
2023/01/24 11:24:07;;;;;;;;;;;5.70;93.30;;;6.36;59.93;100372.16;4995107;28;109402;-76
2023/01/24 11:26:37;;;;;;;;;;;5.80;93.30;;;6.37;59.99;100370.28;4992382;28;123834;-74
2023/01/24 11:29:06;;;;;;;;;;;5.80;93.30;;;6.38;59.86;100364.53;4989681;28;123827;-74
2023/01/24 11:31:36;;;;;;;;;;;5.80;93.30;;;6.40;60.36;100356.88;4974787;28;109004;-73
2023/01/24 11:34:09;;;;;;;;;;;5.90;93.30;;;6.42;59.68;100362.13;4989895;28;108777;-75
2023/01/24 11:36:41;;;;;;;;;;;5.90;93.20;;;6.43;60.12;100365.72;4979976;28;124423;-73
2023/01/24 11:39:30;;;;;;;;;;;5.90;93.20;;;6.44;60.27;100362.72;4990694;28;124194;-74
2023/01/24 11:42:07;;;;;;;;;;;5.90;93.20;;;6.43;60.14;100361.06;4983132;28;110497;-75
2023/01/24 11:44:54;;;;;;;;;;;5.80;93.10;;;6.44;60.44;100354.47;4991889;28;109208;-75
2023/01/24 11:47:22;;;;;;;;;;;5.90;93.20;;;6.42;59.65;100345.63;4990706;28;123833;-73
2023/01/24 11:49:58;;;;;;;;;;;5.90;93.20;;;6.43;59.86;100350.06;4991288;28;123755;-74
2023/01/24 11:53:00;;;;;;;;;;;5.90;93.10;;;6.43;60.00;100339.09;4989451;28;109509;-73
2023/01/24 11:55:53;;;;;;;;;;;5.90;93.20;;;6.44;59.70;100343.50;4971533;28;108749;-73
2023/01/24 11:58:25;;;;;;;;;;;5.90;93.20;;;6.43;59.98;100339.09;4992551;28;123324;-74
2023/01/24 12:00:58;;;;;;;;;;;5.90;93.50;;;6.45;60.44;100341.56;4990141;28;124752;-75
2023/01/24 12:03:40;;;;;;;;;;;5.90;93.20;;;6.45;59.72;100333.34;4988999;28;110137;-74